createdAt,value
2022-11-08T00:02:36.970Z,36.29
2022-11-08T00:07:57.321Z,36.15
2022-11-08T00:13:17.492Z,36.10
2022-11-08T00:18:19.776Z,35.99
2022-11-08T00:23:21.936Z,36.03
2022-11-08T00:28:23.861Z,34.65
2022-11-08T00:33:25.748Z,36.18
2022-11-08T00:38:28.084Z,36.00
2022-11-08T00:43:29.986Z,34.96
2022-11-08T00:48:31.908Z,35.13
2022-11-08T00:53:37.040Z,34.98
2022-11-08T00:58:39.186Z,36.23
2022-11-08T01:03:41.160Z,35.02
2022-11-08T01:08:44.040Z,35.31
2022-11-08T01:13:46.710Z,35.13
2022-11-08T01:18:50.802Z,34.57
2022-11-08T01:23:54.434Z,35.17
2022-11-08T01:28:57.786Z,34.47
2022-11-08T01:34:00.196Z,34.65
2022-11-08T01:39:02.112Z,35.55
2022-11-08T01:44:04.222Z,34.83
2022-11-08T01:49:19.046Z,35.00
2022-11-08T01:54:28.300Z,34.86
2022-11-08T01:59:31.935Z,35.03
2022-11-08T02:04:34.061Z,35.32
2022-11-08T02:09:38.791Z,35.79
2022-11-08T02:14:40.733Z,36.08
2022-11-08T02:19:50.598Z,35.96
2022-11-08T02:24:52.794Z,35.55
2022-11-08T02:29:56.325Z,35.83
2022-11-08T02:34:59.468Z,35.80
2022-11-08T02:40:01.415Z,35.48
2022-11-08T02:45:04.196Z,36.07
2022-11-08T02:50:06.768Z,35.32
2022-11-08T02:55:08.850Z,35.52
2022-11-08T03:00:11.548Z,35.04
2022-11-08T03:05:13.487Z,34.96
2022-11-08T03:10:16.508Z,34.67
2022-11-08T03:15:18.416Z,34.76
2022-11-08T03:20:20.360Z,34.49
2022-11-08T03:25:22.252Z,33.86
2022-11-08T03:30:24.180Z,34.19
2022-11-08T03:35:26.235Z,34.46
2022-11-08T03:40:29.016Z,34.29
2022-11-08T03:45:30.997Z,34.38
2022-11-08T03:50:33.134Z,33.32
2022-11-08T03:55:35.239Z,32.97
2022-11-08T04:00:37.169Z,34.01
2022-11-08T04:05:39.082Z,33.41
2022-11-08T04:10:41.094Z,33.49
2022-11-08T04:15:43.013Z,34.21
2022-11-08T04:21:06.164Z,33.34
2022-11-08T04:26:11.688Z,33.08
2022-11-08T04:31:17.575Z,33.64
2022-11-08T04:36:19.797Z,33.81
2022-11-08T04:41:24.265Z,34.09
2022-11-08T04:46:28.462Z,34.43
2022-11-08T04:51:34.065Z,33.90
2022-11-08T04:56:36.134Z,34.33
2022-11-08T05:01:38.227Z,33.43
2022-11-08T05:06:40.500Z,33.15
2022-11-08T05:11:42.520Z,33.39
2022-11-08T05:16:44.558Z,33.59
2022-11-08T05:22:04.982Z,33.19
2022-11-08T05:27:06.942Z,33.14
2022-11-08T05:32:08.952Z,32.19
2022-11-08T05:37:11.476Z,32.56
2022-11-08T05:42:13.490Z,32.46
2022-11-08T05:47:15.493Z,32.73
2022-11-08T05:52:17.520Z,33.86
2022-11-08T05:57:22.078Z,33.99
2022-11-08T06:02:24.530Z,34.35
2022-11-08T06:07:28.620Z,35.00
2022-11-08T06:12:30.905Z,35.31
2022-11-08T06:17:33.055Z,36.20
2022-11-08T06:22:35.732Z,35.75
2022-11-08T06:27:37.756Z,35.92
2022-11-08T06:32:39.759Z,35.50
2022-11-08T06:37:41.721Z,35.24
2022-11-08T06:42:43.736Z,35.08
2022-11-08T06:47:45.816Z,35.19
2022-11-08T06:52:47.790Z,35.10
2022-11-08T06:57:49.900Z,35.17
2022-11-08T07:03:00.418Z,33.66
2022-11-08T07:08:03.108Z,34.26
2022-11-08T07:13:07.718Z,35.39
2022-11-08T07:18:13.357Z,35.04
2022-11-08T07:23:15.500Z,34.44
2022-11-08T07:28:19.056Z,34.60
2022-11-08T07:33:21.611Z,34.20
2022-11-08T07:38:24.060Z,33.65
2022-11-08T07:43:27.916Z,32.15
2022-11-08T07:48:33.580Z,33.02
2022-11-08T07:53:37.087Z,32.78
2022-11-08T07:58:39.205Z,33.02
2022-11-08T08:03:41.214Z,33.58
2022-11-08T08:08:43.258Z,32.57
2022-11-08T08:13:45.282Z,33.13
2022-11-08T08:18:55.029Z,33.33
2022-11-08T08:23:58.330Z,31.64
2022-11-08T08:29:00.297Z,31.82
2022-11-08T08:34:02.404Z,31.68
2022-11-08T08:39:04.392Z,31.94
2022-11-08T08:44:06.392Z,31.00
2022-11-08T08:49:08.302Z,31.34
2022-11-08T08:54:10.329Z,33.60
2022-11-08T09:04:36.072Z,35.62
2022-11-08T09:09:38.174Z,35.67
2022-11-08T09:14:40.128Z,35.43
2022-11-08T09:19:42.094Z,35.63
2022-11-08T09:24:44.127Z,35.53
2022-11-08T09:29:46.113Z,34.46
2022-11-08T09:34:48.198Z,34.95
2022-11-08T09:39:50.695Z,32.26
2022-11-08T09:45:11.899Z,30.07
2022-11-08T09:50:31.646Z,29.90
2022-11-08T09:55:47.830Z,31.09
2022-11-08T10:00:51.069Z,31.99
2022-11-08T10:06:09.390Z,29.15
2022-11-08T10:11:36.950Z,30.25
2022-11-08T10:16:53.135Z,29.64
2022-11-08T10:22:16.956Z,28.40
2022-11-08T10:27:41.087Z,32.72
2022-11-08T10:32:43.682Z,30.85
2022-11-08T10:37:52.105Z,30.77
2022-11-08T10:43:05.549Z,32.17
2022-11-08T10:48:12.693Z,32.01
2022-11-08T10:53:28.753Z,33.38
2022-11-08T10:58:41.400Z,31.60
2022-11-08T11:03:44.921Z,30.78
2022-11-08T11:08:54.429Z,29.25
2022-11-08T11:14:05.878Z,28.14
2022-11-08T11:19:15.239Z,28.05
2022-11-08T11:24:20.490Z,28.49
2022-11-08T11:29:28.208Z,31.00
2022-11-08T11:34:39.715Z,29.67
2022-11-08T11:40:07.513Z,30.81
2022-11-08T11:45:17.310Z,33.94
2022-11-08T11:50:22.536Z,31.13
2022-11-08T11:55:35.211Z,30.04
2022-11-08T12:00:49.381Z,27.99
2022-11-08T12:06:28.757Z,28.53
2022-11-08T12:11:55.377Z,28.14
2022-11-08T12:16:57.396Z,32.34
2022-11-08T12:22:22.788Z,32.14
2022-11-08T12:27:40.048Z,34.42
2022-11-08T12:33:27.085Z,32.08
2022-11-08T12:38:29.251Z,29.94
2022-11-08T12:43:46.960Z,29.29
2022-11-08T12:49:18.810Z,27.83
2022-11-08T12:54:26.743Z,28.17
2022-11-08T12:59:40.108Z,28.38
2022-11-08T13:04:57.646Z,27.33
2022-11-08T13:10:12.785Z,25.30
2022-11-08T13:15:25.240Z,30.93
2022-11-08T13:20:46.848Z,30.08
2022-11-08T13:25:49.876Z,27.66
2022-11-08T13:31:02.834Z,27.81
2022-11-08T13:36:29.956Z,27.16
2022-11-08T13:41:31.917Z,26.39
2022-11-08T13:46:33.848Z,25.52
2022-11-08T13:51:40.195Z,24.70
2022-11-08T13:56:46.733Z,23.74
2022-11-08T14:01:48.745Z,23.62
2022-11-08T14:07:18.463Z,24.37
2022-11-08T14:12:52.458Z,24.76
2022-11-08T14:18:28.269Z,23.60
2022-11-08T14:23:32.811Z,24.25
2022-11-08T14:28:41.543Z,25.81
2022-11-08T14:33:43.558Z,27.33
2022-11-08T14:39:10.077Z,28.07
2022-11-08T14:44:15.228Z,25.40
2022-11-08T14:49:40.229Z,28.58
2022-11-08T14:54:45.104Z,27.67
2022-11-08T14:59:47.101Z,26.53
2022-11-08T15:04:49.602Z,30.49
2022-11-08T15:09:52.266Z,27.11
2022-11-08T15:14:59.475Z,28.01
2022-11-08T15:20:20.852Z,26.37
2022-11-08T15:25:34.534Z,26.08
2022-11-08T15:30:42.763Z,26.38
2022-11-08T15:35:47.196Z,26.47
2022-11-08T15:40:54.548Z,29.29
2022-11-08T15:45:57.661Z,29.96
2022-11-08T15:50:59.813Z,29.38
2022-11-08T15:56:04.749Z,29.00
2022-11-08T16:01:07.006Z,28.46
2022-11-08T16:06:12.241Z,28.85
2022-11-08T16:11:23.054Z,29.26
2022-11-08T16:16:25.272Z,29.76
2022-11-08T16:21:27.428Z,28.91
2022-11-08T16:26:29.675Z,28.44
2022-11-08T16:31:31.642Z,28.36
2022-11-08T16:36:33.649Z,27.79
2022-11-08T16:41:40.105Z,28.71
2022-11-08T16:46:45.250Z,28.94
2022-11-08T16:51:47.875Z,30.74
2022-11-08T16:56:51.568Z,30.02
2022-11-08T17:01:54.041Z,30.56
2022-11-08T17:06:56.129Z,32.15
2022-11-08T17:11:58.187Z,31.63
2022-11-08T17:17:00.261Z,32.72
2022-11-08T17:22:02.238Z,31.49
2022-11-08T17:27:04.202Z,31.74
2022-11-08T17:32:06.386Z,31.96
2022-11-08T17:37:09.656Z,32.48
2022-11-08T17:42:11.887Z,32.53
2022-11-08T17:47:13.964Z,32.17
2022-11-08T17:52:16.358Z,32.14
2022-11-08T17:57:18.368Z,32.21
2022-11-08T18:02:20.547Z,33.03
2022-11-08T18:07:23.115Z,32.66
2022-11-08T18:12:25.033Z,31.76
2022-11-08T18:17:27.419Z,33.04
2022-11-08T18:22:29.419Z,33.58
2022-11-08T18:27:31.437Z,34.68
2022-11-08T18:32:33.403Z,35.65
2022-11-08T18:37:35.352Z,35.13
2022-11-08T18:42:37.586Z,36.43
2022-11-08T18:47:41.312Z,35.94
2022-11-08T18:52:45.535Z,36.81
2022-11-08T18:57:47.594Z,36.28
2022-11-08T19:02:49.878Z,36.18
2022-11-08T19:07:51.967Z,35.42
2022-11-08T19:12:53.971Z,36.37
2022-11-08T19:17:56.060Z,36.61
2022-11-08T19:22:58.072Z,35.34
2022-11-08T19:28:00.090Z,34.89
2022-11-08T19:33:02.381Z,37.20
2022-11-08T19:38:04.581Z,36.63
2022-11-08T19:43:06.965Z,34.62
2022-11-08T19:48:09.316Z,34.58
2022-11-08T19:53:11.372Z,33.48
2022-11-08T19:58:13.377Z,33.21
2022-11-08T20:03:15.345Z,33.69
2022-11-08T20:08:18.014Z,32.31
2022-11-08T20:13:20.553Z,34.03
2022-11-08T20:18:22.616Z,35.31
2022-11-08T20:23:25.714Z,33.83
2022-11-08T20:28:28.580Z,34.42
2022-11-08T20:33:33.389Z,33.98
2022-11-08T20:38:36.972Z,33.11
2022-11-08T20:43:43.551Z,34.43
2022-11-08T20:48:50.663Z,33.30
2022-11-08T20:53:52.989Z,33.77
2022-11-08T20:58:54.945Z,34.08
2022-11-08T21:03:57.154Z,35.42
2022-11-08T21:09:03.034Z,34.49
2022-11-08T21:14:09.766Z,35.54
2022-11-08T21:19:11.904Z,35.05
2022-11-08T21:24:14.138Z,35.12
2022-11-08T21:29:16.143Z,35.08
2022-11-08T21:34:18.132Z,37.59
2022-11-08T21:39:20.097Z,34.78
2022-11-08T21:44:22.129Z,34.37
2022-11-08T21:49:24.177Z,37.54
2022-11-08T21:54:26.167Z,37.41
2022-11-08T21:59:28.208Z,35.65
2022-11-08T22:04:30.344Z,38.64
2022-11-08T22:09:32.308Z,42.83
2022-11-08T22:14:34.286Z,37.89
2022-11-08T22:19:36.371Z,36.98
2022-11-08T22:24:38.767Z,35.59
2022-11-08T22:29:40.728Z,37.03
2022-11-08T22:34:42.730Z,35.55
2022-11-08T22:39:44.730Z,36.24
2022-11-08T22:44:46.681Z,36.49
2022-11-08T22:49:48.677Z,40.07
2022-11-08T22:54:50.740Z,39.79
2022-11-08T22:59:52.732Z,36.61
2022-11-08T23:04:54.696Z,35.27
2022-11-08T23:09:56.659Z,34.34
2022-11-08T23:15:17.262Z,35.18
2022-11-08T23:20:38.269Z,36.10
2022-11-08T23:25:40.263Z,36.47
2022-11-08T23:31:01.467Z,33.96
2022-11-08T23:36:12.584Z,34.75
2022-11-08T23:41:33.475Z,36.22
2022-11-08T23:46:35.402Z,34.96
2022-11-08T23:51:37.348Z,33.69
2022-11-08T23:56:39.638Z,33.53
